Time;durP1;ratioP1;P1;durP2;ratioP2;P2;SDS_P1;SDS_P2;PMS_P1;PMS_P2;Temp;Humidity;BMP_temperature;BMP_pressure;BME280_temperature;BME280_humidity;BME280_pressure;Samples;Min_cycle;Max_cycle;Signal;HPM_P1;HPM_P2
2023/01/21 00:00:35;;;;;;;59.03;28.50;;;-0.90;99.90;;;;;;5012003;28;20045;-80
2023/01/21 00:03:01;;;;;;;60.42;28.02;;;-0.90;99.90;;;;;;5024979;28;20089;-80
2023/01/21 00:05:27;;;;;;;58.85;28.88;;;-0.90;99.90;;;;;;5031961;28;20069;-80
2023/01/21 00:07:53;;;;;;;58.58;28.83;;;-0.80;99.90;;;;;;5033285;28;20492;-80
2023/01/21 00:10:18;;;;;;;65.18;30.17;;;-0.80;99.90;;;;;;5033968;28;20155;-80
2023/01/21 00:12:44;;;;;;;60.53;28.90;;;-0.70;99.90;;;;;;5002401;28;20133;-80
2023/01/21 00:15:10;;;;;;;62.58;29.75;;;0.10;99.90;;;;;;5002883;28;20053;-80
2023/01/21 00:17:36;;;;;;;64.35;30.80;;;-0.10;99.90;;;;;;5029049;28;20136;-81
2023/01/21 00:20:05;;;;;;;66.22;32.13;;;-0.60;99.90;;;;;;5032119;28;20272;-80
2023/01/21 00:22:32;;;;;;;62.75;31.23;;;-0.80;99.90;;;;;;5042350;28;20053;-81
2023/01/21 00:24:57;;;;;;;65.93;30.30;;;-0.70;99.90;;;;;;5036937;28;20053;-80
2023/01/21 00:27:23;;;;;;;66.38;31.02;;;0.00;99.90;;;;;;5055645;28;20553;-81
2023/01/21 00:29:49;;;;;;;64.93;30.77;;;-0.70;99.90;;;;;;5025980;28;20049;-80
2023/01/21 00:32:15;;;;;;;69.28;31.98;;;-0.70;99.90;;;;;;5028018;28;20056;-81
2023/01/21 00:34:41;;;;;;;66.00;32.13;;;-0.50;99.90;;;;;;5036304;28;20128;-80
2023/01/21 00:37:07;;;;;;;67.47;32.65;;;0.00;99.90;;;;;;5039890;28;20052;-81
2023/01/21 00:39:33;;;;;;;71.47;33.88;;;-0.60;99.90;;;;;;5055453;28;20056;-81
2023/01/21 00:41:58;;;;;;;74.25;34.13;;;-0.60;99.90;;;;;;5026536;28;20102;-80
2023/01/21 00:44:24;;;;;;;76.53;34.65;;;-0.60;99.90;;;;;;5022361;28;20238;-80
2023/01/21 00:46:50;;;;;;;72.35;33.35;;;-0.60;99.90;;;;;;5056860;28;20085;-80
2023/01/21 00:49:16;;;;;;;75.88;34.13;;;-0.60;99.90;;;;;;5041683;28;20052;-80
2023/01/21 00:51:41;;;;;;;72.78;34.60;;;-0.10;99.90;;;;;;5056718;28;20044;-80
2023/01/21 00:54:07;;;;;;;73.70;33.40;;;-0.10;99.90;;;;;;5055256;28;20048;-79
2023/01/21 00:56:33;;;;;;;79.50;34.78;;;-0.60;99.90;;;;;;5032218;28;20473;-80
2023/01/21 00:58:59;;;;;;;78.65;35.63;;;-0.60;99.90;;;;;;5036188;28;20083;-81
2023/01/21 01:01:26;;;;;;;78.97;34.90;;;-0.60;99.90;;;;;;5036411;28;20049;-79
2023/01/21 01:03:52;;;;;;;83.30;36.65;;;-0.60;99.90;;;;;;5022358;28;20045;-81
2023/01/21 01:06:20;;;;;;;76.80;34.13;;;-0.60;99.90;;;;;;5036033;28;20055;-81
2023/01/21 01:08:48;;;;;;;82.50;37.33;;;-0.10;99.90;;;;;;5070381;28;20049;-80
2023/01/21 01:11:15;;;;;;;83.28;36.45;;;-0.60;99.90;;;;;;5039816;28;20058;-80
2023/01/21 01:13:42;;;;;;;86.25;36.65;;;-0.60;99.90;;;;;;5055393;28;20040;-80
2023/01/21 01:16:09;;;;;;;86.03;35.42;;;-0.70;99.90;;;;;;5053742;28;20044;-80
2023/01/21 01:18:36;;;;;;;89.68;37.90;;;-0.70;99.90;;;;;;5041283;28;20106;-80
2023/01/21 01:21:03;;;;;;;93.10;37.97;;;-0.60;99.90;;;;;;5042138;28;20051;-80
2023/01/21 01:23:29;;;;;;;100.07;38.03;;;-0.70;99.90;;;;;;5034587;28;20061;-80
2023/01/21 01:25:57;;;;;;;86.70;36.45;;;-0.60;99.90;;;;;;5046620;28;20404;-81
2023/01/21 01:28:23;;;;;;;94.95;36.65;;;-0.60;99.90;;;;;;5052205;28;20140;-80
2023/01/21 01:30:49;;;;;;;91.70;36.92;;;-0.70;99.90;;;;;;5045096;28;20044;-80
2023/01/21 01:33:14;;;;;;;88.13;35.03;;;-0.70;99.90;;;;;;4996651;28;1252732;-79
2023/01/21 01:35:41;;;;;;;103.60;37.90;;;-0.70;99.90;;;;;;5027616;28;20423;-80
2023/01/21 01:38:08;;;;;;;92.95;36.50;;;-0.80;99.90;;;;;;5042800;28;20048;-80
2023/01/21 01:40:36;;;;;;;112.90;37.42;;;-0.80;99.90;;;;;;5055145;28;20438;-80
2023/01/21 01:43:02;;;;;;;99.40;36.88;;;-0.80;99.90;;;;;;5056733;28;20048;-80
2023/01/21 01:45:27;;;;;;;96.40;36.05;;;-0.10;99.90;;;;;;5069214;28;20043;-80
2023/01/21 01:48:01;;;;;;;119.90;36.90;;;-0.80;99.90;;;;;;5056574;28;20059;-80
2023/01/21 01:50:31;;;;;;;121.55;36.90;;;-0.30;99.90;;;;;;5041730;28;20049;-80
2023/01/21 01:52:59;;;;;;;119.57;36.38;;;0.10;99.90;;;;;;5056600;28;20063;-80
2023/01/21 01:55:30;;;;;;;127.40;36.45;;;-0.90;99.90;;;;;;5035366;28;20064;-80
2023/01/21 01:57:57;;;;;;;128.32;37.45;;;-0.90;99.90;;;;;;5020608;28;20052;-80
2023/01/21 02:00:24;;;;;;;122.82;36.85;;;-0.70;99.90;;;;;;5049897;28;20072;-80
2023/01/21 02:05:38;;;;;;;146.27;39.90;;;-0.30;99.90;;;;;;5055683;28;20053;-80
2023/01/21 02:08:05;;;;;;;106.18;37.28;;;-0.90;99.90;;;;;;5056109;28;20079;-80
2023/01/21 02:10:30;;;;;;;185.40;43.10;;;-0.30;99.90;;;;;;5038370;28;20044;-79
2023/01/21 02:12:57;;;;;;;230.90;43.13;;;-0.40;99.90;;;;;;5036602;28;20102;-80
2023/01/21 02:15:39;;;;;;;204.80;40.92;;;-0.90;99.90;;;;;;5035981;28;20044;-80
2023/01/21 02:18:24;;;;;;;225.20;37.30;;;-0.90;99.90;;;;;;5052246;28;20064;-81
2023/01/21 02:21:03;;;;;;;93.75;34.50;;;-0.80;99.90;;;;;;5061740;28;20044;-81
2023/01/21 02:23:59;;;;;;;100.65;28.15;;;-0.80;99.90;;;;;;5047797;28;20396;-81
2023/01/21 02:26:28;;;;;;;217.55;38.70;;;-0.80;99.90;;;;;;5049268;28;20044;-81
2023/01/21 02:29:16;;;;;;;98.35;33.78;;;-0.70;99.90;;;;;;5028750;28;20459;-81
2023/01/21 02:32:28;;;;;;;245.88;41.30;;;-0.90;99.90;;;;;;5036819;28;20048;-81
2023/01/21 02:35:17;;;;;;;151.13;39.28;;;-0.90;99.90;;;;;;4991898;28;20057;-81
2023/01/21 02:38:10;;;;;;;183.23;41.15;;;-0.90;99.90;;;;;;5035617;28;20084;-80
2023/01/21 02:41:09;;;;;;;124.80;38.78;;;-0.90;99.90;;;;;;5033175;28;20111;-80
2023/01/21 02:43:57;;;;;;;94.32;34.80;;;-0.90;99.90;;;;;;5053663;28;20052;-80
2023/01/21 02:46:44;;;;;;;173.88;38.13;;;-0.90;99.90;;;;;;5054873;28;20485;-81
2023/01/21 02:49:31;;;;;;;107.40;37.10;;;-0.90;99.90;;;;;;5044039;28;20048;-79
2023/01/21 02:51:56;;;;;;;197.45;41.42;;;-0.20;99.90;;;;;;5051911;28;20044;-80
2023/01/21 02:54:37;;;;;;;179.10;40.25;;;-0.90;99.90;;;;;;5043729;28;20105;-80
2023/01/21 02:57:11;;;;;;;146.55;40.22;;;-0.90;99.90;;;;;;5058331;28;20044;-80
2023/01/21 02:59:39;;;;;;;151.63;40.25;;;-0.90;99.90;;;;;;5054242;28;20084;-81
2023/01/21 03:02:26;;;;;;;146.35;40.80;;;-0.80;99.90;;;;;;5051926;28;20408;-80
2023/01/21 03:05:03;;;;;;;170.50;40.38;;;-0.80;99.90;;;;;;5055220;28;20080;-80
2023/01/21 03:07:34;;;;;;;119.72;38.90;;;-0.90;99.90;;;;;;5049655;28;20547;-80
2023/01/21 03:10:13;;;;;;;272.95;43.42;;;0.00;99.90;;;;;;5046272;28;20056;-80
2023/01/21 03:12:42;;;;;;;136.95;38.85;;;-0.80;99.90;;;;;;5040616;28;20049;-80
2023/01/21 03:18:23;;;;;;;158.85;39.72;;;-0.90;99.90;;;;;;5040671;28;20057;-80
2023/01/21 03:21:02;;;;;;;156.13;38.58;;;-0.80;99.90;;;;;;5055099;28;20056;-80
2023/01/21 03:23:39;;;;;;;204.77;40.03;;;-0.80;99.90;;;;;;5046775;28;20041;-80
2023/01/21 03:26:07;;;;;;;114.90;38.03;;;-0.20;99.90;;;;;;5049294;28;20427;-80
2023/01/21 03:28:40;;;;;;;114.65;37.85;;;-0.80;99.90;;;;;;5036021;28;20114;-80
2023/01/21 03:31:12;;;;;;;100.50;36.75;;;-0.80;99.90;;;;;;5046562;28;20131;-80
2023/01/21 03:33:42;;;;;;;116.72;39.03;;;-0.30;99.90;;;;;;5062886;28;20057;-80
2023/01/21 03:36:15;;;;;;;99.88;36.67;;;-0.30;99.90;;;;;;5071877;28;20047;-81
2023/01/21 03:38:48;;;;;;;105.43;37.90;;;-0.70;99.90;;;;;;5061622;28;20496;-80
2023/01/21 03:41:22;;;;;;;110.72;38.28;;;-0.70;99.90;;;;;;5064765;28;20472;-80
2023/01/21 03:43:49;;;;;;;107.78;37.95;;;-0.70;99.90;;;;;;5043984;28;20048;-80
2023/01/21 03:46:25;;;;;;;110.95;38.55;;;-0.60;99.90;;;;;;5051464;28;20411;-80
2023/01/21 03:49:19;;;;;;;117.15;37.28;;;-0.70;99.90;;;;;;5042453;28;20052;-80
2023/01/21 03:51:50;;;;;;;125.80;39.05;;;-0.60;99.90;;;;;;5058563;28;20055;-80
2023/01/21 03:54:16;;;;;;;100.97;37.78;;;-0.10;99.90;;;;;;5057001;28;20052;-80
2023/01/21 03:56:42;;;;;;;99.55;37.70;;;-0.60;99.90;;;;;;5071505;28;20055;-80
2023/01/21 03:59:08;;;;;;;103.47;37.97;;;0.20;99.90;;;;;;5056623;28;20103;-80
2023/01/21 04:01:33;;;;;;;103.32;37.58;;;-0.60;99.90;;;;;;5071741;28;20045;-80
2023/01/21 04:03:59;;;;;;;102.80;38.35;;;-0.40;99.90;;;;;;5057051;28;20054;-80
2023/01/21 04:06:25;;;;;;;82.75;35.95;;;0.20;99.90;;;;;;5054467;28;20083;-80
2023/01/21 04:08:51;;;;;;;91.05;35.17;;;-0.50;99.90;;;;;;5068486;28;20148;-80
2023/01/21 04:11:16;;;;;;;93.35;36.97;;;-0.60;99.90;;;;;;5058511;28;20177;-80
2023/01/21 04:13:42;;;;;;;89.65;36.63;;;-0.60;99.90;;;;;;5041210;28;20044;-80
2023/01/21 04:16:08;;;;;;;88.72;35.92;;;-0.60;99.90;;;;;;5075022;28;20032;-80
2023/01/21 04:18:34;;;;;;;113.82;37.92;;;-0.30;99.90;;;;;;5041377;28;20048;-80
2023/01/21 04:20:59;;;;;;;84.93;34.45;;;-0.60;99.90;;;;;;5058204;28;20127;-80
2023/01/21 04:23:25;;;;;;;74.82;32.90;;;-0.50;99.90;;;;;;5067091;28;20183;-80
2023/01/21 04:25:51;;;;;;;71.13;33.30;;;-0.70;99.90;;;;;;5067379;28;20115;-80
2023/01/21 04:28:18;;;;;;;71.20;32.53;;;-0.70;99.90;;;;;;5059973;28;20377;-80
2023/01/21 04:30:48;;;;;;;71.90;33.10;;;-0.80;99.90;;;;;;5074922;28;20091;-80
2023/01/21 04:33:14;;;;;;;70.65;32.28;;;-0.80;99.90;;;;;;5059761;28;20053;-80
2023/01/21 04:35:40;;;;;;;68.55;31.95;;;-0.20;99.90;;;;;;5074508;28;20052;-80
2023/01/21 04:38:06;;;;;;;72.50;32.55;;;-0.20;99.90;;;;;;5040506;28;20555;-80
2023/01/21 04:40:32;;;;;;;76.35;33.22;;;-0.40;99.90;;;;;;5055133;28;20037;-80
2023/01/21 04:42:57;;;;;;;68.75;32.67;;;-0.40;99.90;;;;;;5068048;28;20052;-80
2023/01/21 04:45:23;;;;;;;67.38;31.65;;;-0.80;99.90;;;;;;5055467;28;20049;-80
2023/01/21 04:47:49;;;;;;;65.53;32.25;;;0.10;99.90;;;;;;5036237;28;20123;-80
2023/01/21 04:50:15;;;;;;;68.50;32.90;;;-0.90;99.90;;;;;;5054840;28;20060;-80
2023/01/21 04:52:41;;;;;;;74.68;33.67;;;-0.90;99.90;;;;;;5048048;28;20055;-80
2023/01/21 04:55:08;;;;;;;79.20;34.25;;;-0.80;99.90;;;;;;5057203;28;20127;-80
2023/01/21 04:57:34;;;;;;;70.72;32.92;;;-0.90;99.90;;;;;;5058695;28;20087;-80
2023/01/21 05:00:00;;;;;;;71.72;33.25;;;-0.90;99.90;;;;;;5053866;28;20053;-80
2023/01/21 05:02:26;;;;;;;73.40;33.00;;;-0.60;99.90;;;;;;5057492;28;20052;-80
2023/01/21 05:04:51;;;;;;;76.53;33.72;;;-0.80;99.90;;;;;;5057370;28;20068;-80
2023/01/21 05:07:17;;;;;;;82.68;35.20;;;-0.80;99.90;;;;;;5073277;28;20056;-80
2023/01/21 05:09:43;;;;;;;78.32;34.00;;;-0.80;99.90;;;;;;5036762;28;20056;-80
2023/01/21 05:12:09;;;;;;;71.43;33.40;;;-0.80;99.90;;;;;;5073285;28;20048;-80
2023/01/21 05:14:35;;;;;;;77.13;33.33;;;-0.80;99.90;;;;;;5073545;28;20424;-81
2023/01/21 05:17:00;;;;;;;73.05;33.63;;;-0.90;99.90;;;;;;5057008;28;20072;-80
2023/01/21 05:19:26;;;;;;;77.68;33.55;;;-0.20;99.90;;;;;;5072644;28;20048;-81
2023/01/21 05:21:52;;;;;;;81.15;34.03;;;-0.80;99.90;;;;;;5061246;28;20041;-81
2023/01/21 05:24:18;;;;;;;68.38;32.22;;;-0.70;99.90;;;;;;5052399;28;20443;-81
2023/01/21 05:26:44;;;;;;;68.75;32.72;;;-0.80;99.90;;;;;;5072428;28;20496;-81
2023/01/21 05:29:10;;;;;;;74.18;33.45;;;-0.80;99.90;;;;;;5059529;28;20047;-80
2023/01/21 05:31:36;;;;;;;77.65;32.95;;;-0.80;99.90;;;;;;5045365;28;20040;-80
2023/01/21 05:34:02;;;;;;;77.68;33.10;;;-0.70;99.90;;;;;;5066333;28;20443;-80
2023/01/21 05:36:28;;;;;;;86.40;35.25;;;-0.70;99.90;;;;;;5026191;28;20053;-80
2023/01/21 05:38:54;;;;;;;79.80;35.63;;;-0.70;99.90;;;;;;5072419;28;20075;-80
2023/01/21 05:41:19;;;;;;;79.30;34.03;;;-0.70;99.90;;;;;;5056812;28;20169;-80
2023/01/21 05:43:45;;;;;;;72.57;32.42;;;-0.70;99.90;;;;;;5056274;28;20127;-80
2023/01/21 05:46:11;;;;;;;82.05;35.15;;;-0.70;99.90;;;;;;5056341;28;20045;-81
2023/01/21 05:48:36;;;;;;;79.85;34.25;;;-0.10;99.90;;;;;;5038120;28;20045;-80
2023/01/21 05:51:02;;;;;;;82.38;34.17;;;-0.70;99.90;;;;;;5036344;28;20053;-81
2023/01/21 05:53:28;;;;;;;79.32;33.08;;;-0.70;99.90;;;;;;5037537;28;20389;-80
2023/01/21 05:55:55;;;;;;;83.13;33.83;;;-0.70;99.90;;;;;;5048441;28;20048;-80
2023/01/21 05:58:22;;;;;;;79.88;34.03;;;-0.70;99.90;;;;;;5029986;28;20152;-80
2023/01/21 06:00:47;;;;;;;80.40;33.17;;;-0.40;99.90;;;;;;5003526;28;20052;-80
2023/01/21 06:03:14;;;;;;;73.20;33.42;;;-0.70;99.90;;;;;;5031934;28;20054;-80
2023/01/21 06:05:40;;;;;;;76.85;33.28;;;0.30;99.90;;;;;;5055666;28;20046;-80
2023/01/21 06:08:07;;;;;;;79.15;33.65;;;-0.30;99.90;;;;;;5038723;28;20053;-80
2023/01/21 06:10:33;;;;;;;80.38;33.15;;;0.40;99.90;;;;;;5051968;28;20393;-80
2023/01/21 06:12:58;;;;;;;81.60;34.13;;;-0.50;99.90;;;;;;5044659;28;20044;-80
2023/01/21 06:15:24;;;;;;;79.30;33.17;;;-0.60;99.90;;;;;;5055469;28;20067;-80
2023/01/21 06:17:54;;;;;;;79.13;33.50;;;-0.60;99.90;;;;;;5035922;28;20041;-80
2023/01/21 06:20:20;;;;;;;74.05;32.78;;;-0.60;99.90;;;;;;5035496;28;20048;-80
2023/01/21 06:22:46;;;;;;;77.10;33.45;;;0.40;99.90;;;;;;5053281;28;20091;-81
2023/01/21 06:25:12;;;;;;;77.75;32.80;;;-0.50;99.90;;;;;;5045949;28;20055;-80
2023/01/21 06:27:38;;;;;;;78.43;32.60;;;0.30;99.90;;;;;;5035953;28;20049;-80
2023/01/21 06:30:05;;;;;;;75.05;31.77;;;0.10;99.90;;;;;;5037980;28;20051;-80
2023/01/21 06:32:32;;;;;;;73.88;32.03;;;-0.50;99.90;;;;;;5027218;28;20064;-80
2023/01/21 06:34:57;;;;;;;79.18;32.22;;;-0.50;99.90;;;;;;5039397;28;20055;-80
2023/01/21 06:37:23;;;;;;;82.10;33.10;;;-0.40;99.90;;;;;;5037477;28;20045;-80
2023/01/21 06:39:49;;;;;;;74.78;31.45;;;-0.50;99.90;;;;;;5035026;28;20127;-80
2023/01/21 06:42:16;;;;;;;78.53;32.78;;;-0.40;99.90;;;;;;5040493;28;20060;-80
2023/01/21 06:44:43;;;;;;;81.10;34.15;;;-0.40;99.90;;;;;;5065876;28;20070;-80
2023/01/21 06:47:09;;;;;;;137.07;48.88;;;-0.40;99.90;;;;;;5039993;28;20048;-80
2023/01/21 06:49:35;;;;;;;117.05;48.15;;;-0.40;99.90;;;;;;5037032;28;20057;-80
2023/01/21 06:52:01;;;;;;;90.93;39.10;;;-0.40;99.90;;;;;;5036249;28;20080;-80
2023/01/21 06:54:26;;;;;;;80.03;34.13;;;-0.40;99.90;;;;;;5044321;28;20131;-81
2023/01/21 06:56:52;;;;;;;77.40;33.72;;;0.50;99.90;;;;;;5043983;28;20143;-80
2023/01/21 06:59:18;;;;;;;80.00;32.97;;;0.30;99.90;;;;;;5051125;28;20389;-80
2023/01/21 07:01:44;;;;;;;74.53;32.03;;;-0.30;99.90;;;;;;5053579;28;20430;-80
2023/01/21 07:04:09;;;;;;;74.63;32.40;;;-0.30;99.90;;;;;;5054013;28;20052;-81
2023/01/21 07:06:35;;;;;;;86.15;39.88;;;-0.30;99.90;;;;;;5051447;28;20049;-80
2023/01/21 07:09:02;;;;;;;81.60;33.28;;;0.40;99.90;;;;;;5042042;28;20396;-80
2023/01/21 07:11:29;;;;;;;78.07;33.35;;;-0.30;99.90;;;;;;5043868;28;20048;-80
2023/01/21 07:13:54;;;;;;;97.00;44.60;;;-0.30;99.90;;;;;;5058703;28;20045;-80
2023/01/21 07:16:20;;;;;;;83.68;36.92;;;0.00;99.90;;;;;;5067673;28;20044;-80
2023/01/21 07:18:46;;;;;;;73.45;32.80;;;-0.30;99.90;;;;;;5057389;28;20049;-80
2023/01/21 07:21:12;;;;;;;67.95;31.77;;;0.10;99.90;;;;;;5049932;28;20040;-80
2023/01/21 07:23:37;;;;;;;66.13;30.13;;;-0.20;99.90;;;;;;5070611;28;20059;-80
2023/01/21 07:26:04;;;;;;;70.75;32.90;;;-0.20;99.90;;;;;;5056912;28;20045;-80
2023/01/21 07:28:30;;;;;;;72.63;32.92;;;-0.20;99.90;;;;;;5031687;28;20048;-80
2023/01/21 07:30:58;;;;;;;75.50;30.65;;;-0.20;99.90;;;;;;5047682;28;20055;-80
2023/01/21 07:33:24;;;;;;;76.35;32.63;;;-0.20;99.90;;;;;;5050463;28;20063;-80
2023/01/21 07:35:50;;;;;;;76.45;31.55;;;0.10;99.90;;;;;;5070535;28;20463;-80
2023/01/21 07:38:16;;;;;;;101.00;48.03;;;0.30;99.90;;;;;;5045199;28;20120;-80
2023/01/21 07:40:42;;;;;;;78.45;33.13;;;0.10;99.90;;;;;;5070027;28;20048;-80
2023/01/21 07:43:08;;;;;;;75.68;32.35;;;0.10;99.90;;;;;;5045237;28;20072;-80
2023/01/21 07:45:37;;;;;;;78.72;33.20;;;0.40;99.90;;;;;;5063103;28;20507;-80
2023/01/21 07:48:03;;;;;;;75.15;32.67;;;-0.10;99.90;;;;;;5056319;28;20049;-80
2023/01/21 07:50:29;;;;;;;71.45;31.65;;;-0.10;99.90;;;;;;5070582;28;20045;-80
2023/01/21 07:52:55;;;;;;;82.97;33.60;;;0.00;99.90;;;;;;5063474;28;20054;-80
2023/01/21 07:55:21;;;;;;;73.28;31.40;;;-0.10;99.90;;;;;;5045389;28;20049;-79
2023/01/21 07:57:47;;;;;;;79.97;32.22;;;0.90;99.90;;;;;;5053400;28;20049;-79
2023/01/21 08:00:13;;;;;;;73.72;32.15;;;-0.10;99.90;;;;;;5047709;28;20102;-80
2023/01/21 08:02:39;;;;;;;75.75;32.05;;;-0.10;99.90;;;;;;5065437;28;20049;-80
2023/01/21 08:05:06;;;;;;;70.35;31.35;;;-0.10;99.90;;;;;;5062446;28;20532;-79
2023/01/21 08:07:32;;;;;;;70.43;31.10;;;-0.10;99.90;;;;;;5070371;28;20076;-80
2023/01/21 08:09:57;;;;;;;75.78;31.88;;;-0.10;99.90;;;;;;5062712;28;20072;-80
2023/01/21 08:12:23;;;;;;;74.65;31.77;;;0.50;99.90;;;;;;5068389;28;20103;-80
2023/01/21 08:14:49;;;;;;;77.15;32.45;;;-0.10;99.90;;;;;;5074186;28;20052;-80
2023/01/21 08:17:15;;;;;;;78.57;31.77;;;0.00;99.90;;;;;;5074574;28;20044;-80
2023/01/21 08:19:40;;;;;;;80.20;32.88;;;0.00;99.90;;;;;;5073799;28;20055;-79
2023/01/21 08:22:06;;;;;;;74.43;32.10;;;0.20;99.90;;;;;;5061718;28;20163;-79
2023/01/21 08:24:32;;;;;;;78.22;32.45;;;0.00;99.90;;;;;;5068061;28;20348;-80
2023/01/21 08:26:59;;;;;;;73.82;32.25;;;0.00;99.90;;;;;;5030174;28;20055;-80
2023/01/21 08:29:25;;;;;;;73.82;33.13;;;0.00;99.90;;;;;;5046589;28;20049;-79
2023/01/21 08:31:51;;;;;;;72.53;30.50;;;0.10;99.90;;;;;;5059620;28;20045;-79
2023/01/21 08:34:17;;;;;;;76.32;31.35;;;0.10;99.90;;;;;;5056690;28;20144;-79
2023/01/21 08:36:43;;;;;;;76.80;32.60;;;0.30;99.90;;;;;;5021294;28;20057;-79
2023/01/21 08:39:12;;;;;;;75.97;31.33;;;0.10;99.90;;;;;;5001703;28;20045;-79
2023/01/21 08:41:39;;;;;;;80.47;32.67;;;0.40;99.90;;;;;;5034789;28;20049;-79
2023/01/21 08:44:05;;;;;;;77.93;31.52;;;0.10;99.90;;;;;;5023072;28;20075;-79
2023/01/21 08:46:31;;;;;;;75.60;31.55;;;0.20;99.90;;;;;;5030416;28;20077;-79
2023/01/21 08:48:57;;;;;;;77.55;32.00;;;0.30;99.90;;;;;;5003523;28;20417;-79
2023/01/21 08:51:23;;;;;;;71.70;30.35;;;0.20;99.90;;;;;;5032010;28;20048;-79
2023/01/21 08:53:50;;;;;;;68.97;30.38;;;0.20;99.90;;;;;;5042172;28;20125;-79
2023/01/21 08:56:16;;;;;;;71.10;31.55;;;0.20;99.90;;;;;;5036164;28;20496;-79
2023/01/21 08:58:42;;;;;;;69.57;31.05;;;0.30;99.90;;;;;;5017825;28;20337;-79
2023/01/21 09:01:10;;;;;;;74.28;31.60;;;0.50;99.90;;;;;;5015450;28;20342;-79
2023/01/21 09:03:36;;;;;;;69.65;30.88;;;0.30;99.90;;;;;;5027847;28;20124;-79
2023/01/21 09:06:04;;;;;;;67.47;29.30;;;0.30;99.90;;;;;;5019432;28;20129;-79
2023/01/21 09:08:30;;;;;;;69.80;30.75;;;0.30;99.90;;;;;;5061181;28;20412;-78
2023/01/21 09:11:00;;;;;;;66.07;29.15;;;0.40;99.90;;;;;;5020980;28;20048;-79
2023/01/21 09:13:37;;;;;;;71.22;30.67;;;0.40;99.90;;;;;;5036243;28;20116;-78
2023/01/21 09:16:08;;;;;;;63.40;29.08;;;0.40;99.90;;;;;;5022253;28;20433;-79
2023/01/21 09:18:35;;;;;;;70.22;30.45;;;0.40;99.90;;;;;;5023853;28;20049;-78
2023/01/21 09:21:03;;;;;;;66.75;28.80;;;0.50;99.90;;;;;;5034614;28;20053;-78
2023/01/21 09:23:32;;;;;;;62.88;28.38;;;0.50;99.90;;;;;;5027596;28;20404;-78
2023/01/21 09:26:07;;;;;;;66.55;28.65;;;0.50;99.90;;;;;;5030540;28;20045;-78
2023/01/21 09:28:35;;;;;;;67.93;29.60;;;0.50;99.90;;;;;;5023329;28;20400;-78
2023/01/21 09:31:04;;;;;;;63.10;28.13;;;0.50;99.90;;;;;;5040169;28;20046;-78
2023/01/21 09:33:31;;;;;;;66.68;29.23;;;0.60;99.90;;;;;;5019237;28;20105;-78
2023/01/21 09:36:00;;;;;;;71.38;30.33;;;0.60;99.90;;;;;;5030579;28;20055;-78
2023/01/21 09:38:26;;;;;;;67.50;29.63;;;0.90;99.90;;;;;;5029643;28;20092;-78
2023/01/21 09:40:53;;;;;;;68.35;30.33;;;0.60;99.90;;;;;;5019763;28;20053;-78
2023/01/21 09:43:36;;;;;;;67.07;30.42;;;0.60;99.90;;;;;;5032249;28;20060;-78
2023/01/21 09:46:06;;;;;;;63.90;28.88;;;0.80;99.90;;;;;;5031965;28;20055;-78
2023/01/21 09:48:37;;;;;;;65.72;29.77;;;0.60;99.90;;;;;;5005937;28;20049;-78
2023/01/21 09:51:13;;;;;;;65.25;28.48;;;0.60;99.90;;;;;;5036492;28;20041;-77
2023/01/21 09:53:51;;;;;;;68.57;29.80;;;0.70;99.90;;;;;;5032815;28;20057;-77
2023/01/21 09:57:04;;;;;;;63.83;28.90;;;0.70;99.90;;;;;;5036058;28;20408;-78
2023/01/21 09:59:45;;;;;;;68.82;29.58;;;0.70;99.90;;;;;;4988764;28;20470;-78
2023/01/21 10:02:41;;;;;;;64.82;29.35;;;0.80;99.90;;;;;;4955412;28;20097;-78
2023/01/21 10:05:24;;;;;;;66.45;29.50;;;0.80;99.90;;;;;;5017804;28;20140;-78
2023/01/21 10:08:08;;;;;;;66.70;30.08;;;0.80;99.90;;;;;;5048892;28;20056;-78
2023/01/21 10:10:40;;;;;;;64.95;29.10;;;0.90;99.90;;;;;;5031266;28;20049;-78
2023/01/21 10:13:24;;;;;;;62.40;28.45;;;0.90;99.90;;;;;;5035941;28;20051;-78
2023/01/21 10:16:06;;;;;;;63.78;29.42;;;0.90;99.90;;;;;;5032660;28;20084;-79
2023/01/21 10:18:36;;;;;;;61.08;28.08;;;0.90;99.90;;;;;;5035512;28;20048;-78
2023/01/21 10:21:32;;;;;;;61.22;29.13;;;0.90;99.90;;;;;;5018346;28;20114;-78
2023/01/21 10:24:19;;;;;;;59.47;28.90;;;1.00;99.90;;;;;;5007017;28;20056;-79
2023/01/21 10:26:47;;;;;;;59.95;28.38;;;1.00;99.90;;;;;;5030953;28;20033;-79
2023/01/21 10:29:18;;;;;;;59.92;30.38;;;1.00;99.90;;;;;;5032730;28;20045;-78
2023/01/21 10:31:53;;;;;;;65.28;29.90;;;1.10;99.90;;;;;;5034279;28;20098;-78
2023/01/21 10:34:18;;;;;;;61.33;30.17;;;1.10;99.90;;;;;;5016486;28;20133;-78
2023/01/21 10:37:19;;;;;;;61.75;31.05;;;1.20;99.90;;;;;;5017122;28;20172;-78
2023/01/21 10:39:56;;;;;;;59.47;29.85;;;1.20;99.90;;;;;;4995788;28;20508;-78
2023/01/21 10:42:55;;;;;;;61.33;30.48;;;1.30;99.90;;;;;;5032952;28;20385;-79
2023/01/21 10:45:29;;;;;;;57.40;29.55;;;1.40;99.90;;;;;;5020440;28;20033;-79
2023/01/21 10:48:11;;;;;;;56.65;30.48;;;1.60;99.90;;;;;;5018065;28;20076;-79
2023/01/21 10:51:03;;;;;;;57.03;29.80;;;1.70;99.90;;;;;;5008019;28;20182;-80
2023/01/21 10:53:35;;;;;;;59.50;30.70;;;1.70;99.90;;;;;;5015868;28;20049;-79
2023/01/21 10:56:20;;;;;;;55.38;31.75;;;1.80;99.90;;;;;;5024723;28;20098;-79
2023/01/21 10:58:51;;;;;;;52.88;28.80;;;1.90;99.90;;;;;;5034035;28;20156;-80
2023/01/21 11:01:36;;;;;;;50.70;28.15;;;2.00;99.90;;;;;;5024593;28;20049;-80
2023/01/21 11:04:26;;;;;;;49.88;27.88;;;2.10;99.90;;;;;;5032956;28;20056;-79
2023/01/21 11:07:04;;;;;;;49.35;28.52;;;2.10;99.90;;;;;;5022946;28;20136;-79
2023/01/21 11:09:48;;;;;;;44.15;25.15;;;2.20;99.90;;;;;;5034094;28;20056;-80
2023/01/21 11:12:21;;;;;;;43.42;25.92;;;2.20;99.90;;;;;;5034264;28;20045;-80
2023/01/21 11:14:54;;;;;;;47.50;26.40;;;2.20;99.90;;;;;;5034930;28;20045;-80
2023/01/21 11:17:35;;;;;;;47.67;27.13;;;2.20;99.90;;;;;;5035180;28;20124;-80
2023/01/21 11:20:04;;;;;;;47.13;26.92;;;2.20;99.90;;;;;;5038983;28;20404;-80
2023/01/21 11:22:31;;;;;;;46.15;27.00;;;2.30;99.90;;;;;;5038444;28;20095;-80
2023/01/21 11:24:58;;;;;;;44.53;25.92;;;2.30;99.90;;;;;;5021243;28;20044;-80
2023/01/21 11:27:34;;;;;;;40.60;24.42;;;2.30;99.90;;;;;;5038895;28;20059;-80
2023/01/21 11:30:00;;;;;;;40.20;24.05;;;2.40;99.90;;;;;;5071475;28;20068;-80
2023/01/21 11:32:28;;;;;;;41.53;26.52;;;2.40;99.90;;;;;;5028317;28;20053;-80
2023/01/21 11:35:18;;;;;;;42.35;25.05;;;2.50;99.90;;;;;;5018237;28;20755;-79
2023/01/21 11:37:45;;;;;;;42.38;26.73;;;2.50;99.90;;;;;;5038051;28;20132;-79
2023/01/21 11:40:20;;;;;;;41.22;25.05;;;2.60;99.90;;;;;;5035686;28;20081;-79
2023/01/21 11:42:49;;;;;;;42.95;25.88;;;2.60;99.90;;;;;;5050439;28;20056;-79
2023/01/21 11:45:37;;;;;;;40.90;25.63;;;2.70;99.90;;;;;;5025815;28;20041;-79
2023/01/21 11:48:19;;;;;;;39.63;25.00;;;2.70;99.90;;;;;;5022254;28;20049;-79
2023/01/21 11:50:45;;;;;;;40.78;25.83;;;2.80;99.90;;;;;;5028412;28;20067;-80
2023/01/21 11:53:16;;;;;;;42.25;26.77;;;2.80;99.90;;;;;;5008669;28;20041;-79
2023/01/21 11:55:52;;;;;;;41.40;25.48;;;2.80;99.90;;;;;;5057442;28;20049;-79
2023/01/21 11:58:21;;;;;;;42.22;25.60;;;2.80;99.90;;;;;;5071487;28;20049;-79
2023/01/21 12:00:49;;;;;;;44.35;26.27;;;2.80;99.90;;;;;;5024480;28;20114;-79
2023/01/21 12:03:18;;;;;;;40.90;26.08;;;2.80;99.90;;;;;;5021873;28;20095;-78
2023/01/21 12:05:48;;;;;;;42.63;27.10;;;2.90;99.90;;;;;;5051536;28;20123;-79
2023/01/21 12:08:25;;;;;;;42.67;27.17;;;3.00;99.90;;;;;;5026531;28;20049;-80
2023/01/21 12:10:55;;;;;;;44.63;27.70;;;3.00;99.90;;;;;;5036638;28;20044;-79
2023/01/21 12:13:56;;;;;;;44.45;27.42;;;3.00;99.90;;;;;;5025980;28;20049;-78
2023/01/21 12:16:36;;;;;;;45.17;27.73;;;3.00;99.90;;;;;;5007218;28;20071;-79
2023/01/21 12:19:09;;;;;;;46.00;28.63;;;3.00;99.90;;;;;;5017417;28;20056;-79
2023/01/21 12:22:10;;;;;;;40.25;26.27;;;3.10;99.90;;;;;;5018304;28;20081;-79
2023/01/21 12:24:51;;;;;;;43.83;27.75;;;3.10;99.90;;;;;;5031942;28;20061;-79
2023/01/21 12:27:26;;;;;;;40.40;27.08;;;3.10;99.90;;;;;;5031180;28;20048;-79
2023/01/21 12:29:57;;;;;;;40.10;26.65;;;3.00;99.90;;;;;;5035463;28;20037;-79
2023/01/21 12:32:29;;;;;;;40.95;25.88;;;3.00;99.90;;;;;;5028363;28;20048;-80
2023/01/21 12:35:07;;;;;;;40.20;26.10;;;3.00;99.90;;;;;;5035987;28;20053;-80
2023/01/21 12:37:53;;;;;;;41.33;26.17;;;3.00;99.90;;;;;;5025493;28;20404;-80
2023/01/21 12:40:28;;;;;;;41.10;26.92;;;3.00;99.90;;;;;;4997271;28;20046;-80
2023/01/21 12:43:01;;;;;;;40.95;26.10;;;3.00;99.90;;;;;;5043865;28;20055;-79
2023/01/21 12:45:35;;;;;;;44.08;27.75;;;2.90;99.90;;;;;;5016947;28;20176;-79
2023/01/21 12:48:11;;;;;;;44.53;28.98;;;2.90;99.90;;;;;;5017736;28;20095;-79
2023/01/21 12:50:40;;;;;;;44.95;28.98;;;3.00;99.90;;;;;;5004063;28;20061;-79
2023/01/21 12:53:08;;;;;;;41.65;27.48;;;3.00;99.90;;;;;;5038075;28;20497;-79